createdAt,value
2023-02-28T00:01:29.842Z,57.68
2023-02-28T00:03:58.478Z,57.68
2023-02-28T00:06:26.731Z,58.07
2023-02-28T00:08:54.898Z,58.74
2023-02-28T00:11:23.384Z,59.34
2023-02-28T00:13:51.656Z,59.77
2023-02-28T00:16:22.969Z,60.64
2023-02-28T00:18:51.736Z,62.24
2023-02-28T00:21:21.294Z,65.47
2023-02-28T00:23:49.693Z,65.64
2023-02-28T00:26:18.679Z,65.58
2023-02-28T00:28:49.624Z,64.74
2023-02-28T00:31:17.882Z,63.97
2023-02-28T00:33:46.146Z,63.88
2023-02-28T00:36:16.674Z,63.85
2023-02-28T00:38:44.948Z,63.69
2023-02-28T00:41:13.232Z,62.90
2023-02-28T00:43:42.426Z,62.13
2023-02-28T00:46:12.860Z,61.35
2023-02-28T00:48:41.119Z,62.43
2023-02-28T00:51:09.321Z,59.47
2023-02-28T00:53:37.564Z,57.89
2023-02-28T00:56:06.248Z,57.65
2023-02-28T00:58:34.525Z,57.97
2023-02-28T01:01:02.884Z,58.58
2023-02-28T01:03:31.300Z,59.29
2023-02-28T01:06:00.373Z,60.15
2023-02-28T01:08:28.548Z,61.90
2023-02-28T01:10:56.815Z,64.94
2023-02-28T01:13:26.520Z,65.79
2023-02-28T01:15:57.927Z,66.05
2023-02-28T01:18:26.999Z,65.82
2023-02-28T01:20:55.444Z,65.33
2023-02-28T01:23:25.084Z,64.76
2023-02-28T01:25:53.502Z,64.25
2023-02-28T01:28:22.521Z,64.16
2023-02-28T01:30:52.734Z,63.98
2023-02-28T01:33:21.335Z,63.78
2023-02-28T01:35:49.832Z,63.42
2023-02-28T01:38:22.959Z,62.89
2023-02-28T01:40:52.051Z,62.15
2023-02-28T01:43:25.329Z,61.50
2023-02-28T01:45:55.314Z,61.31
2023-02-28T01:48:27.554Z,61.21
2023-02-28T01:50:58.610Z,61.10
2023-02-28T01:53:36.290Z,60.49
2023-02-28T01:56:08.746Z,60.48
2023-02-28T01:58:38.246Z,60.44
2023-02-28T02:01:06.438Z,60.35
2023-02-28T02:03:36.459Z,58.86
2023-02-28T02:06:04.831Z,56.70
2023-02-28T02:08:33.318Z,56.52
2023-02-28T02:11:02.628Z,57.32
2023-02-28T02:13:56.388Z,57.98
2023-02-28T02:16:33.568Z,58.39
2023-02-28T02:19:20.370Z,59.80
2023-02-28T02:22:30.425Z,61.82
2023-02-28T02:25:20.002Z,65.10
2023-02-28T02:28:00.261Z,65.84
2023-02-28T02:30:44.812Z,65.57
2023-02-28T02:33:31.618Z,65.41
2023-02-28T02:36:09.012Z,65.14
2023-02-28T02:39:03.823Z,64.88
2023-02-28T02:41:52.456Z,64.70
2023-02-28T02:44:45.631Z,64.35
2023-02-28T02:47:17.577Z,63.82
2023-02-28T02:49:51.639Z,62.99
2023-02-28T02:52:23.443Z,62.55
2023-02-28T02:54:56.478Z,62.46
2023-02-28T02:57:31.460Z,62.24
2023-02-28T03:00:01.891Z,62.13
2023-02-28T03:02:35.089Z,61.91
2023-02-28T03:05:08.045Z,61.66
2023-02-28T03:07:36.440Z,61.21
2023-02-28T03:10:30.928Z,60.54
2023-02-28T03:13:10.568Z,60.58
2023-02-28T03:16:04.778Z,60.53
2023-02-28T03:18:39.270Z,60.44
2023-02-28T03:21:13.588Z,60.11
2023-02-28T03:23:54.161Z,58.68
2023-02-28T03:26:27.137Z,56.49
2023-02-28T03:29:14.256Z,56.62
2023-02-28T03:32:05.646Z,56.96
2023-02-28T03:34:34.768Z,57.73
2023-02-28T03:37:11.009Z,59.38
2023-02-28T03:39:46.382Z,61.60
2023-02-28T03:42:21.396Z,64.86
2023-02-28T03:44:57.628Z,65.64
2023-02-28T03:47:37.626Z,65.65
2023-02-28T03:50:22.989Z,65.49
2023-02-28T03:53:02.530Z,65.24
2023-02-28T03:55:35.703Z,64.93
2023-02-28T03:58:14.542Z,64.51
2023-02-28T04:00:48.119Z,64.19
2023-02-28T04:03:16.309Z,63.51
2023-02-28T04:05:52.424Z,63.16
2023-02-28T04:08:20.977Z,63.11
2023-02-28T04:10:57.986Z,62.57
2023-02-28T04:13:26.110Z,62.17
2023-02-28T04:15:54.727Z,61.79
2023-02-28T04:18:23.263Z,61.50
2023-02-28T04:20:51.431Z,61.14
2023-02-28T04:23:19.614Z,61.07
2023-02-28T04:25:47.883Z,60.86
2023-02-28T04:28:16.153Z,60.72
2023-02-28T04:30:44.326Z,60.63
2023-02-28T04:33:12.807Z,60.62
2023-02-28T04:35:40.905Z,60.42
2023-02-28T04:38:09.149Z,60.34
2023-02-28T04:40:37.426Z,60.33
2023-02-28T04:43:05.596Z,60.11
2023-02-28T04:45:35.057Z,58.87
2023-02-28T04:48:03.410Z,57.16
2023-02-28T04:50:31.643Z,57.06
2023-02-28T04:53:00.046Z,57.91
2023-02-28T04:55:28.415Z,58.60
2023-02-28T04:57:56.674Z,59.61
2023-02-28T05:00:25.154Z,61.67
2023-02-28T05:02:53.433Z,64.40
2023-02-28T05:05:22.010Z,65.44
2023-02-28T05:07:50.495Z,65.64
2023-02-28T05:10:18.969Z,65.46
2023-02-28T05:12:47.146Z,65.29
2023-02-28T05:15:16.335Z,65.10
2023-02-28T05:17:44.815Z,64.84
2023-02-28T05:20:16.282Z,64.44
2023-02-28T05:22:45.254Z,64.42
2023-02-28T05:25:20.477Z,64.09
2023-02-28T05:27:48.974Z,63.84
2023-02-28T05:30:17.475Z,63.54
2023-02-28T05:32:51.357Z,63.29
2023-02-28T05:35:19.653Z,63.13
2023-02-28T05:37:47.805Z,62.74
2023-02-28T05:40:16.696Z,62.77
2023-02-28T05:42:44.865Z,62.64
2023-02-28T05:45:15.700Z,62.38
2023-02-28T05:47:44.341Z,62.21
2023-02-28T05:50:12.865Z,61.94
2023-02-28T05:52:41.042Z,61.72
2023-02-28T05:55:10.035Z,61.55
2023-02-28T05:57:38.209Z,61.55
2023-02-28T06:00:07.281Z,61.42
2023-02-28T06:02:43.559Z,61.30
2023-02-28T06:05:17.365Z,61.24
2023-02-28T06:07:45.738Z,61.35
2023-02-28T06:10:14.633Z,61.42
2023-02-28T06:12:43.217Z,61.40
2023-02-28T06:15:15.276Z,61.46
2023-02-28T06:17:45.084Z,61.50
2023-02-28T06:20:16.242Z,61.56
2023-02-28T06:22:45.015Z,61.70
2023-02-28T06:25:13.298Z,61.76
2023-02-28T06:27:41.564Z,61.83
2023-02-28T06:30:12.549Z,61.76
2023-02-28T06:32:40.987Z,61.76
2023-02-28T06:35:09.771Z,61.81
2023-02-28T06:37:40.798Z,61.76
2023-02-28T06:40:11.446Z,61.86
2023-02-28T06:42:39.713Z,61.97
2023-02-28T06:45:10.635Z,61.94
2023-02-28T06:47:40.578Z,61.97
2023-02-28T06:50:13.835Z,62.11
2023-02-28T06:52:42.136Z,62.02
2023-02-28T06:55:10.712Z,61.98
2023-02-28T06:57:39.295Z,61.92
2023-02-28T07:00:09.781Z,62.01
2023-02-28T07:02:38.815Z,62.00
2023-02-28T07:05:07.923Z,61.71
2023-02-28T07:07:37.522Z,61.33
2023-02-28T07:10:06.319Z,61.25
2023-02-28T07:12:34.572Z,61.27
2023-02-28T07:15:02.945Z,61.28
2023-02-28T07:17:31.327Z,61.02
2023-02-28T07:19:59.493Z,60.81
2023-02-28T07:22:27.872Z,60.74
2023-02-28T07:24:56.598Z,60.75
2023-02-28T07:27:25.037Z,60.64
2023-02-28T07:29:54.332Z,60.77
2023-02-28T07:32:22.588Z,60.69
2023-02-28T07:34:51.192Z,60.59
2023-02-28T07:37:19.467Z,60.41
2023-02-28T07:39:47.642Z,60.17
2023-02-28T07:42:15.914Z,59.82
2023-02-28T07:44:46.444Z,58.38
2023-02-28T07:47:14.725Z,56.63
2023-02-28T07:49:42.993Z,55.95
2023-02-28T07:52:12.359Z,56.98
2023-02-28T07:54:40.828Z,57.25
2023-02-28T07:57:09.355Z,58.04
2023-02-28T07:59:37.661Z,58.82
2023-02-28T08:02:05.951Z,59.51
2023-02-28T08:04:34.229Z,60.35
2023-02-28T08:07:02.559Z,62.52
2023-02-28T08:09:31.556Z,65.25
2023-02-28T08:11:59.724Z,65.18
2023-02-28T08:14:27.999Z,64.78
2023-02-28T08:16:56.239Z,63.68
2023-02-28T08:19:24.659Z,62.89
2023-02-28T08:21:53.226Z,61.72
2023-02-28T08:24:21.497Z,61.11
2023-02-28T08:26:50.185Z,59.03
2023-02-28T08:29:18.360Z,56.99
2023-02-28T08:31:46.638Z,56.33
2023-02-28T08:34:16.748Z,55.56
2023-02-28T08:36:46.954Z,55.97
2023-02-28T08:39:15.095Z,56.51
2023-02-28T08:41:46.069Z,57.03
2023-02-28T08:44:15.173Z,56.71
2023-02-28T08:46:43.549Z,56.55
2023-02-28T08:49:12.949Z,55.81
2023-02-28T08:51:41.133Z,56.28
2023-02-28T08:54:09.949Z,55.55
2023-02-28T08:56:38.184Z,54.64
2023-02-28T08:59:06.453Z,53.93
2023-02-28T09:01:34.815Z,53.62
2023-02-28T09:04:04.026Z,51.82
2023-02-28T09:06:33.197Z,51.89
2023-02-28T09:09:02.668Z,51.67
2023-02-28T09:11:31.406Z,49.79
2023-02-28T09:14:01.527Z,49.70
2023-02-28T09:16:30.399Z,49.43
2023-02-28T09:18:58.795Z,49.76
2023-02-28T09:21:27.760Z,50.18
2023-02-28T09:23:56.065Z,50.83
2023-02-28T09:26:26.611Z,50.41
2023-02-28T09:28:55.689Z,50.76
2023-02-28T09:31:26.661Z,50.57
2023-02-28T09:33:57.690Z,50.40
2023-02-28T09:36:37.978Z,49.59
2023-02-28T09:39:10.800Z,49.76
2023-02-28T09:41:49.821Z,50.41
2023-02-28T09:44:39.200Z,48.64
2023-02-28T09:47:36.146Z,47.65
2023-02-28T09:50:18.140Z,48.11
2023-02-28T09:52:46.922Z,46.73
2023-02-28T09:55:23.700Z,46.68
2023-02-28T09:57:53.204Z,45.97
2023-02-28T10:00:40.728Z,45.81
2023-02-28T10:03:31.860Z,45.08
2023-02-28T10:06:14.346Z,44.87
2023-02-28T10:08:59.926Z,43.61
2023-02-28T10:11:29.484Z,45.36
2023-02-28T10:14:03.862Z,46.03
2023-02-28T10:16:38.777Z,44.61
2023-02-28T10:19:13.294Z,44.03
2023-02-28T10:21:49.176Z,43.17
2023-02-28T10:24:28.699Z,42.03
2023-02-28T10:27:07.925Z,42.27
2023-02-28T10:29:37.027Z,41.65
2023-02-28T10:32:05.433Z,42.11
2023-02-28T10:34:33.672Z,41.49
2023-02-28T10:37:08.514Z,41.57
2023-02-28T10:39:45.124Z,40.45
2023-02-28T10:42:30.541Z,39.92
2023-02-28T10:45:16.953Z,40.28
2023-02-28T10:47:53.412Z,40.16
2023-02-28T10:50:28.545Z,39.25
2023-02-28T10:53:11.670Z,38.99
2023-02-28T10:55:40.562Z,39.18
2023-02-28T10:58:26.754Z,39.42
2023-02-28T11:00:55.531Z,39.19
2023-02-28T11:03:33.027Z,38.26
2023-02-28T11:06:07.800Z,38.48
2023-02-28T11:08:36.160Z,37.36
2023-02-28T11:11:06.984Z,36.40
2023-02-28T11:13:36.870Z,37.39
2023-02-28T11:16:11.378Z,39.03
2023-02-28T11:18:55.337Z,38.22
2023-02-28T11:21:41.267Z,38.14
2023-02-28T11:24:27.525Z,37.12
2023-02-28T11:26:56.518Z,36.70
2023-02-28T11:29:26.216Z,36.98
2023-02-28T11:32:12.704Z,37.72
2023-02-28T11:34:42.734Z,36.43
2023-02-28T11:37:21.656Z,36.87
2023-02-28T11:39:50.039Z,36.59
2023-02-28T11:42:33.776Z,36.40
2023-02-28T11:45:14.127Z,36.74
2023-02-28T11:48:14.452Z,35.30
2023-02-28T11:51:01.261Z,34.87
2023-02-28T11:53:46.344Z,34.64
2023-02-28T11:56:20.238Z,35.48
2023-02-28T11:59:26.207Z,35.68
2023-02-28T12:02:09.657Z,35.53
2023-02-28T12:05:01.865Z,35.28
2023-02-28T12:07:43.047Z,36.00
2023-02-28T12:10:25.053Z,35.83
2023-02-28T12:13:06.225Z,36.03
2023-02-28T12:15:56.105Z,35.72
2023-02-28T12:18:51.821Z,35.14
2023-02-28T12:21:30.633Z,35.26
2023-02-28T12:24:16.018Z,35.32
2023-02-28T12:26:48.599Z,35.37
2023-02-28T12:29:30.585Z,34.82
2023-02-28T12:32:16.127Z,34.94
2023-02-28T12:34:50.489Z,35.03
2023-02-28T12:37:31.367Z,34.30
2023-02-28T12:40:07.627Z,34.98
2023-02-28T12:42:53.398Z,34.68
2023-02-28T12:45:27.551Z,34.19
2023-02-28T12:48:04.038Z,34.13
2023-02-28T12:50:33.786Z,34.59
2023-02-28T12:53:04.108Z,34.25
2023-02-28T12:55:35.148Z,33.32
2023-02-28T12:58:24.823Z,34.37
2023-02-28T13:01:05.540Z,33.72
2023-02-28T13:03:33.760Z,34.04
2023-02-28T13:06:14.221Z,32.99
2023-02-28T13:09:03.897Z,34.07
2023-02-28T13:11:48.456Z,33.94
2023-02-28T13:14:28.913Z,33.85
2023-02-28T13:17:15.438Z,32.98
2023-02-28T13:19:57.254Z,32.73
2023-02-28T13:22:40.867Z,33.37
2023-02-28T13:25:24.370Z,33.50
2023-02-28T13:28:02.095Z,33.64
2023-02-28T13:31:00.752Z,33.78
2023-02-28T13:33:58.731Z,33.38
2023-02-28T13:36:33.851Z,34.18
2023-02-28T13:39:37.972Z,34.15
2023-02-28T13:42:38.557Z,34.47
2023-02-28T13:45:06.682Z,33.90
2023-02-28T13:47:40.378Z,33.94
2023-02-28T13:50:20.956Z,33.66
2023-02-28T13:53:14.026Z,33.48
2023-02-28T13:56:00.914Z,33.62
2023-02-28T13:58:40.360Z,33.79
2023-02-28T14:01:37.942Z,33.79
2023-02-28T14:04:42.260Z,33.31
2023-02-28T14:07:24.869Z,34.34
2023-02-28T14:10:06.654Z,34.60
2023-02-28T14:12:53.542Z,34.62
2023-02-28T14:15:34.497Z,35.05
2023-02-28T14:18:04.738Z,35.33
2023-02-28T14:20:35.271Z,35.41
2023-02-28T14:23:03.434Z,36.14
2023-02-28T14:25:37.659Z,36.27
2023-02-28T14:28:35.155Z,35.78
2023-02-28T14:31:12.611Z,35.65
2023-02-28T14:34:03.912Z,36.18
2023-02-28T14:36:35.772Z,36.74
2023-02-28T14:39:18.398Z,37.19
2023-02-28T14:41:47.272Z,37.56
2023-02-28T14:44:20.058Z,37.79
2023-02-28T14:46:57.289Z,37.40
2023-02-28T14:49:30.120Z,37.66
2023-02-28T14:52:16.220Z,37.70
2023-02-28T14:54:44.794Z,38.00
2023-02-28T14:57:29.869Z,38.29
2023-02-28T15:00:15.436Z,38.35
2023-02-28T15:02:44.428Z,38.62
2023-02-28T15:05:18.866Z,38.55
2023-02-28T15:07:48.867Z,39.01
2023-02-28T15:10:27.074Z,38.62
2023-02-28T15:12:59.233Z,39.07
2023-02-28T15:15:40.253Z,39.39
2023-02-28T15:18:15.238Z,39.12
2023-02-28T15:20:44.332Z,39.15
2023-02-28T15:23:13.020Z,39.33
2023-02-28T15:25:41.596Z,39.66
2023-02-28T15:28:19.908Z,39.82
2023-02-28T15:31:16.951Z,39.69
2023-02-28T15:33:58.336Z,40.75
2023-02-28T15:36:30.354Z,41.44
2023-02-28T15:39:10.552Z,41.69
2023-02-28T15:41:42.718Z,41.93
2023-02-28T15:44:30.866Z,42.71
2023-02-28T15:47:06.202Z,43.50
2023-02-28T15:49:44.886Z,44.43
2023-02-28T15:52:17.288Z,45.18
2023-02-28T15:54:46.437Z,45.64
2023-02-28T15:57:21.726Z,45.77
2023-02-28T15:59:56.740Z,46.10
2023-02-28T16:02:33.032Z,46.80
2023-02-28T16:05:07.143Z,47.08
2023-02-28T16:07:37.353Z,47.77
2023-02-28T16:10:06.647Z,48.43
2023-02-28T16:12:38.308Z,48.79
2023-02-28T16:15:19.856Z,48.83
2023-02-28T16:17:48.273Z,49.86
2023-02-28T16:20:22.319Z,50.36
2023-02-28T16:22:50.967Z,50.70
2023-02-28T16:25:21.493Z,51.34
2023-02-28T16:27:51.224Z,51.39
2023-02-28T16:30:32.747Z,50.29
2023-02-28T16:33:01.217Z,51.53
2023-02-28T16:35:29.541Z,52.83
2023-02-28T16:37:57.712Z,53.47
2023-02-28T16:40:29.719Z,53.94
2023-02-28T16:43:00.400Z,54.74
2023-02-28T16:45:29.085Z,54.63
2023-02-28T16:47:57.667Z,53.68
2023-02-28T16:50:29.456Z,55.38
2023-02-28T16:52:57.700Z,55.77
2023-02-28T16:55:27.101Z,56.69
2023-02-28T16:57:57.637Z,56.97
2023-02-28T17:00:27.337Z,57.39
2023-02-28T17:02:56.520Z,57.63
2023-02-28T17:05:25.121Z,58.24
2023-02-28T17:07:53.317Z,58.68
2023-02-28T17:10:27.393Z,58.78
2023-02-28T17:13:06.015Z,59.47
2023-02-28T17:15:38.780Z,60.28
2023-02-28T17:18:07.274Z,63.12
2023-02-28T17:20:35.548Z,67.63
2023-02-28T17:23:03.739Z,65.48
2023-02-28T17:25:31.892Z,64.51
2023-02-28T17:28:00.178Z,63.81
2023-02-28T17:30:28.852Z,63.11
2023-02-28T17:32:57.639Z,62.13
2023-02-28T17:35:27.828Z,61.36
2023-02-28T17:37:56.129Z,59.60
2023-02-28T17:40:25.348Z,57.24
2023-02-28T17:42:53.768Z,56.92
2023-02-28T17:45:21.986Z,56.91
2023-02-28T17:47:51.470Z,57.54
2023-02-28T17:50:23.055Z,58.17
2023-02-28T17:52:51.595Z,58.44
2023-02-28T17:55:22.867Z,59.14
2023-02-28T17:57:51.038Z,59.71
2023-02-28T18:00:19.829Z,60.45
2023-02-28T18:02:48.136Z,62.36
2023-02-28T18:05:16.624Z,65.39
2023-02-28T18:07:44.869Z,68.28
2023-02-28T18:10:20.434Z,69.85
2023-02-28T18:12:53.291Z,67.61
2023-02-28T18:15:22.992Z,65.39
2023-02-28T18:17:51.274Z,63.62
2023-02-28T18:20:19.856Z,62.16
2023-02-28T18:22:48.015Z,59.18
2023-02-28T18:25:17.824Z,55.99
2023-02-28T18:27:59.347Z,55.34
2023-02-28T18:30:31.701Z,55.23
2023-02-28T18:33:01.489Z,56.22
2023-02-28T18:35:37.186Z,57.01
2023-02-28T18:38:17.503Z,57.57
2023-02-28T18:40:56.728Z,58.28
2023-02-28T18:43:26.331Z,59.23
2023-02-28T18:45:55.122Z,60.26
2023-02-28T18:48:23.745Z,64.16
2023-02-28T18:50:52.697Z,70.61
2023-02-28T18:53:20.861Z,68.74
2023-02-28T18:55:49.032Z,66.53
2023-02-28T18:58:17.308Z,65.42
2023-02-28T19:00:45.492Z,64.19
2023-02-28T19:03:13.764Z,63.09
2023-02-28T19:05:42.349Z,62.19
2023-02-28T19:08:10.971Z,59.45
2023-02-28T19:10:43.092Z,56.01
2023-02-28T19:13:11.460Z,55.37
2023-02-28T19:15:39.537Z,56.05
2023-02-28T19:18:07.710Z,56.77
2023-02-28T19:20:36.903Z,57.72
2023-02-28T19:23:05.172Z,58.76
2023-02-28T19:25:33.351Z,59.65
2023-02-28T19:28:01.523Z,60.18
2023-02-28T19:30:30.229Z,64.62
2023-02-28T19:32:58.375Z,71.27
2023-02-28T19:35:26.668Z,68.00
2023-02-28T19:37:54.821Z,66.11
2023-02-28T19:40:23.096Z,65.29
2023-02-28T19:42:51.387Z,64.55
2023-02-28T19:45:19.850Z,63.50
2023-02-28T19:47:48.139Z,62.66
2023-02-28T19:50:16.915Z,62.02
2023-02-28T19:52:45.113Z,59.33
2023-02-28T19:55:14.106Z,55.99
2023-02-28T19:57:42.969Z,55.51
2023-02-28T20:00:14.315Z,55.59
2023-02-28T20:02:44.122Z,56.20
2023-02-28T20:05:12.739Z,57.15
2023-02-28T20:07:41.092Z,58.15
2023-02-28T20:10:10.361Z,59.09
2023-02-28T20:12:38.552Z,59.93
2023-02-28T20:15:07.961Z,64.13
2023-02-28T20:17:36.232Z,70.70
2023-02-28T20:20:05.147Z,69.89
2023-02-28T20:22:33.598Z,67.33
2023-02-28T20:25:01.869Z,63.82
2023-02-28T20:27:31.072Z,62.19
2023-02-28T20:29:59.446Z,61.00
2023-02-28T20:32:27.890Z,58.71
2023-02-28T20:34:56.122Z,56.00
2023-02-28T20:37:24.377Z,55.74
2023-02-28T20:39:53.368Z,56.11
2023-02-28T20:42:21.551Z,56.99
2023-02-28T20:44:49.820Z,57.78
2023-02-28T20:47:18.188Z,58.54
2023-02-28T20:49:46.473Z,59.47
2023-02-28T20:52:15.046Z,60.34
2023-02-28T20:54:43.224Z,65.41
2023-02-28T20:57:11.390Z,71.44
2023-02-28T20:59:41.406Z,68.38
2023-02-28T21:02:12.158Z,66.40
2023-02-28T21:04:40.313Z,65.16
2023-02-28T21:07:08.487Z,64.28
2023-02-28T21:09:36.659Z,63.49
2023-02-28T21:12:04.932Z,62.72
2023-02-28T21:14:33.210Z,61.81
2023-02-28T21:17:01.701Z,60.97
2023-02-28T21:19:30.268Z,58.71
2023-02-28T21:21:58.755Z,56.07
2023-02-28T21:24:27.028Z,55.88
2023-02-28T21:26:57.140Z,56.34
2023-02-28T21:29:25.729Z,56.99
2023-02-28T21:31:53.933Z,57.90
2023-02-28T21:34:22.170Z,58.91
2023-02-28T21:36:50.342Z,60.00
2023-02-28T21:39:20.469Z,64.89
2023-02-28T21:41:48.637Z,72.26
2023-02-28T21:44:19.565Z,70.06
2023-02-28T21:46:49.468Z,67.51
2023-02-28T21:49:17.970Z,64.73
2023-02-28T21:51:46.341Z,63.07
2023-02-28T21:54:14.813Z,62.07
2023-02-28T21:56:43.107Z,61.22
2023-02-28T21:59:11.391Z,58.82
2023-02-28T22:01:44.337Z,55.71
2023-02-28T22:04:21.653Z,55.17
2023-02-28T22:06:57.231Z,55.59
2023-02-28T22:09:26.071Z,56.24
2023-02-28T22:11:55.217Z,57.47
2023-02-28T22:14:23.640Z,58.39
2023-02-28T22:16:54.298Z,59.46
2023-02-28T22:19:23.768Z,63.03
2023-02-28T22:21:54.007Z,71.44
2023-02-28T22:24:24.715Z,68.75
2023-02-28T22:26:53.743Z,66.48
2023-02-28T22:29:22.412Z,65.53
2023-02-28T22:31:50.970Z,64.48
2023-02-28T22:34:19.764Z,63.60
2023-02-28T22:36:48.039Z,62.40
2023-02-28T22:39:16.319Z,61.34
2023-02-28T22:41:44.489Z,58.46
2023-02-28T22:44:12.770Z,55.24
2023-02-28T22:46:40.993Z,54.77
2023-02-28T22:49:09.514Z,55.28
2023-02-28T22:51:37.693Z,55.99
2023-02-28T22:54:05.963Z,56.91
2023-02-28T22:56:34.411Z,57.89
2023-02-28T22:59:03.771Z,58.89
2023-02-28T23:01:34.095Z,59.58
2023-02-28T23:04:03.272Z,64.24
2023-02-28T23:06:32.994Z,72.44
2023-02-28T23:09:04.502Z,71.54
2023-02-28T23:11:35.697Z,67.22
2023-02-28T23:14:04.390Z,64.49
2023-02-28T23:16:43.205Z,63.07
2023-02-28T23:19:17.085Z,62.19
2023-02-28T23:21:46.224Z,61.19
2023-02-28T23:24:16.891Z,58.00
2023-02-28T23:26:47.364Z,54.38
2023-02-28T23:29:17.753Z,52.59
2023-02-28T23:31:46.377Z,54.12
2023-02-28T23:34:15.539Z,54.95
2023-02-28T23:36:46.293Z,56.46
2023-02-28T23:39:17.098Z,57.29
2023-02-28T23:41:45.979Z,58.27
2023-02-28T23:44:17.129Z,59.24
2023-02-28T23:46:51.129Z,60.15
2023-02-28T23:49:20.203Z,64.79
2023-02-28T23:51:49.629Z,72.99
2023-02-28T23:54:18.718Z,72.67
2023-02-28T23:56:47.104Z,68.03
2023-02-28T23:59:15.294Z,64.39
